createdAt,value
2019-04-23T00:00:14.037Z,1.73
2019-04-23T00:02:54.992Z,1.63
2019-04-23T00:05:29.696Z,1.70
2019-04-23T00:08:03.138Z,1.87
2019-04-23T00:12:49.517Z,1.50
2019-04-23T00:15:30.676Z,1.60
2019-04-23T00:17:48.991Z,1.80
2019-04-23T00:20:20.110Z,1.60
2019-04-23T00:23:00.138Z,1.60
2019-04-23T00:28:16.164Z,1.80
2019-04-23T00:30:50.012Z,1.50
2019-04-23T00:33:12.273Z,1.60
2019-04-23T00:35:38.827Z,1.67
2019-04-23T00:38:16.338Z,1.93
2019-04-23T00:40:40.858Z,1.80
2019-04-23T00:48:14.878Z,1.97
2019-04-23T00:50:46.021Z,1.70
2019-04-23T00:53:10.979Z,1.50
2019-04-23T00:55:44.413Z,1.63
2019-04-23T00:58:19.898Z,1.87
2019-04-23T01:03:21.805Z,1.83
2019-04-23T01:05:45.491Z,1.90
2019-04-23T01:08:13.011Z,1.87
2019-04-23T01:10:56.559Z,1.73
2019-04-23T01:13:31.562Z,1.80
2019-04-23T01:15:54.324Z,1.47
2019-04-23T01:18:43.075Z,2.10
2019-04-23T01:20:55.500Z,1.53
2019-04-23T01:23:40.409Z,1.77
2019-04-23T01:26:20.979Z,1.53
2019-04-23T01:29:03.379Z,1.70
2019-04-23T01:31:31.655Z,1.87
2019-04-23T01:33:55.451Z,1.80
2019-04-23T01:36:29.717Z,1.47
2019-04-23T01:39:00.422Z,1.70
2019-04-23T01:41:26.519Z,2.00
2019-04-23T01:44:01.641Z,2.33
2019-04-23T01:46:28.929Z,2.00
2019-04-23T01:48:58.175Z,1.80
2019-04-23T01:51:36.794Z,1.67
2019-04-23T01:53:56.899Z,1.60
2019-04-23T01:56:30.780Z,1.97
2019-04-23T01:59:01.940Z,2.20
2019-04-23T02:01:46.226Z,2.07
2019-04-23T02:04:04.867Z,2.00
2019-04-23T02:08:59.926Z,1.90
2019-04-23T02:11:43.608Z,1.60
2019-04-23T02:14:01.903Z,1.70
2019-04-23T02:16:34.047Z,2.10
2019-04-23T02:19:03.113Z,1.90
2019-04-23T02:21:33.468Z,1.67
2019-04-23T02:23:57.339Z,2.00
2019-04-23T02:26:33.964Z,1.97
2019-04-23T02:29:14.540Z,2.03
2019-04-23T02:31:52.816Z,1.93
2019-04-23T02:36:45.138Z,1.90
2019-04-23T02:39:13.060Z,2.10
2019-04-23T02:41:46.392Z,2.10
2019-04-23T02:46:42.743Z,1.90
2019-04-23T02:59:21.853Z,1.80
2019-04-23T03:04:17.110Z,2.30
2019-04-23T03:09:12.463Z,1.87
2019-04-23T03:11:52.391Z,2.50
2019-04-23T03:14:18.588Z,2.03
2019-04-23T03:19:33.395Z,1.90
2019-04-23T03:22:06.057Z,1.80
2019-04-23T03:25:07.204Z,1.97
2019-04-23T03:30:12.653Z,2.07
2019-04-23T03:34:34.956Z,2.00
2019-04-23T03:35:09.526Z,1.83
2019-04-23T03:40:02.127Z,2.40
2019-04-23T03:42:38.683Z,2.27
2019-04-23T03:45:07.598Z,2.23
2019-04-23T03:47:32.600Z,2.07
2019-04-23T03:50:04.941Z,2.30
2019-04-23T03:55:05.735Z,2.00
2019-04-23T04:00:13.088Z,1.70
2019-04-23T04:05:08.241Z,2.37
2019-04-23T04:07:35.907Z,2.10
2019-04-23T04:15:33.261Z,2.10
2019-04-23T04:17:50.216Z,2.37
2019-04-23T04:20:07.493Z,2.13
2019-04-23T04:32:33.448Z,2.20
2019-04-23T04:40:10.852Z,2.07
2019-04-23T04:43:02.201Z,2.20
2019-04-23T04:55:07.631Z,2.33
2019-04-23T05:02:53.114Z,2.23
2019-04-23T05:07:34.370Z,2.83
2019-04-23T05:12:27.440Z,2.57
2019-04-23T05:17:42.171Z,2.40
2019-04-23T05:20:04.973Z,2.33
2019-04-23T05:22:45.035Z,2.70
2019-04-23T05:24:57.184Z,2.23
2019-04-23T05:27:37.542Z,2.33
2019-04-23T05:30:07.875Z,2.50
2019-04-23T05:32:32.908Z,2.40
2019-04-23T05:35:03.541Z,2.70
2019-04-23T05:37:47.858Z,2.57
2019-04-23T05:40:02.564Z,2.57
2019-04-23T05:42:31.976Z,2.93
2019-04-23T05:45:02.899Z,2.80
2019-04-23T05:47:59.315Z,2.40
2019-04-23T05:50:09.648Z,2.63
2019-04-23T05:52:39.675Z,2.57
2019-04-23T05:55:09.121Z,2.87
2019-04-23T05:57:34.640Z,2.60
2019-04-23T06:00:02.462Z,2.70
2019-04-23T06:02:45.837Z,2.63
2019-04-23T06:05:05.623Z,2.77
2019-04-23T06:07:38.904Z,2.77
2019-04-23T06:10:04.853Z,2.30
2019-04-23T06:12:31.908Z,2.60
2019-04-23T06:15:05.181Z,2.90
2019-04-23T06:17:29.655Z,3.30
2019-04-23T06:22:45.976Z,3.27
2019-04-23T06:25:12.631Z,3.00
2019-04-23T06:27:32.467Z,2.97
2019-04-23T06:30:00.861Z,3.10
2019-04-23T06:32:37.389Z,2.80
2019-04-23T06:35:08.760Z,2.60
2019-04-23T06:37:49.585Z,3.23
2019-04-23T06:40:08.306Z,2.93
2019-04-23T06:42:36.112Z,3.10
2019-04-23T06:45:22.132Z,2.80
2019-04-23T06:47:37.533Z,3.10
2019-04-23T06:50:06.656Z,2.67
2019-04-23T06:52:44.110Z,2.93
2019-04-23T06:55:09.317Z,2.73
2019-04-23T06:57:38.409Z,3.23
2019-04-23T07:00:08.399Z,3.10
2019-04-23T07:02:37.710Z,3.23
2019-04-23T07:05:13.956Z,3.60
2019-04-23T07:10:06.772Z,3.47
2019-04-23T07:15:24.907Z,3.50
2019-04-23T07:17:38.080Z,3.47
2019-04-23T07:20:08.436Z,3.47
2019-04-23T07:22:34.573Z,3.70
2019-04-23T07:25:08.155Z,3.37
2019-04-23T07:27:37.838Z,3.90
2019-04-23T07:32:41.195Z,3.67
2019-04-23T07:35:11.673Z,3.77
2019-04-23T07:37:45.722Z,3.80
2019-04-23T07:40:27.620Z,4.03
2019-04-23T07:42:58.353Z,3.60
2019-04-23T07:45:45.353Z,3.80
2019-04-23T07:50:43.852Z,3.70
2019-04-23T08:00:47.158Z,4.23
2019-04-23T08:05:39.769Z,4.40
2019-04-23T08:08:25.019Z,4.20
2019-04-23T08:10:55.201Z,3.90
2019-04-23T08:13:15.573Z,4.20
2019-04-23T08:15:43.366Z,4.40
2019-04-23T08:18:15.848Z,3.90
2019-04-23T08:20:42.285Z,4.67
2019-04-23T08:23:24.503Z,4.40
2019-04-23T08:28:52.111Z,3.90
2019-04-23T08:31:09.864Z,4.70
2019-04-23T08:33:41.976Z,4.70
2019-04-23T08:36:13.039Z,4.50
2019-04-23T08:38:36.658Z,4.27
2019-04-23T08:41:24.835Z,4.27
2019-04-23T08:44:18.304Z,4.67
2019-04-23T08:46:51.133Z,4.57
2019-04-23T08:49:14.060Z,4.60
2019-04-23T08:51:51.659Z,4.40
2019-04-23T08:54:14.815Z,4.67
2019-04-23T08:56:48.565Z,5.27
2019-04-23T08:59:19.787Z,4.57
2019-04-23T09:02:01.639Z,4.77
2019-04-23T09:04:08.260Z,4.73
2019-04-23T09:06:34.990Z,5.23
2019-04-23T09:09:13.099Z,5.07
2019-04-23T09:11:45.775Z,4.57
2019-04-23T09:14:30.169Z,4.77
2019-04-23T09:16:42.331Z,4.87
2019-04-23T09:19:16.036Z,4.50
2019-04-23T09:21:41.791Z,5.03
2019-04-23T09:24:09.600Z,4.80
2019-04-23T09:26:40.566Z,5.00
2019-04-23T09:29:11.845Z,5.20
2019-04-23T09:32:07.478Z,5.30
2019-04-23T09:34:22.348Z,4.63
2019-04-23T09:37:04.767Z,4.87
2019-04-23T09:42:24.382Z,5.37
2019-04-23T09:47:53.725Z,5.37
2019-04-23T09:50:18.906Z,5.27
2019-04-23T09:53:01.879Z,5.50
2019-04-23T09:55:24.100Z,5.80
2019-04-23T09:57:48.566Z,5.70
2019-04-23T10:00:25.474Z,6.27
2019-04-23T10:02:34.260Z,5.47
2019-04-23T10:05:02.938Z,5.83
2019-04-23T10:07:30.033Z,6.40
2019-04-23T10:09:49.686Z,5.93
2019-04-23T10:12:19.955Z,6.07
2019-04-23T10:14:59.305Z,5.77
2019-04-23T10:17:19.925Z,6.47
2019-04-23T10:19:48.724Z,6.37
2019-04-23T10:22:17.445Z,5.53
2019-04-23T10:24:48.784Z,5.43
2019-04-23T10:27:18.783Z,5.87
2019-04-23T10:29:47.868Z,6.00
2019-04-23T10:32:17.696Z,6.57
2019-04-23T10:34:56.282Z,6.33
2019-04-23T10:37:21.055Z,6.30
2019-04-23T10:39:52.741Z,6.33
2019-04-23T10:42:16.315Z,6.43
2019-04-23T10:44:48.801Z,6.53
2019-04-23T10:48:02.672Z,6.30
2019-04-23T10:50:38.240Z,6.47
2019-04-23T10:53:11.601Z,7.13
2019-04-23T10:55:34.967Z,6.77
2019-04-23T10:58:01.464Z,6.20
2019-04-23T11:00:31.038Z,6.37
2019-04-23T11:03:16.389Z,7.00
2019-04-23T11:05:59.115Z,6.90
2019-04-23T11:08:17.618Z,6.33
2019-04-23T11:10:50.401Z,6.53
2019-04-23T11:16:12.675Z,7.30
2019-04-23T11:18:36.557Z,6.60
2019-04-23T11:20:56.484Z,7.13
2019-04-23T11:23:27.336Z,7.23
2019-04-23T11:25:51.539Z,7.80
2019-04-23T11:28:26.067Z,7.17
2019-04-23T11:30:55.276Z,7.00
2019-04-23T11:33:34.117Z,6.73
2019-04-23T11:36:33.393Z,7.70
2019-04-23T11:41:07.261Z,7.57
2019-04-23T11:46:06.435Z,7.13
2019-04-23T11:48:46.614Z,7.53
2019-04-23T11:51:41.144Z,8.20
2019-04-23T11:53:41.006Z,7.73
2019-04-23T11:56:02.635Z,7.60
2019-04-23T11:58:36.138Z,8.33
2019-04-23T12:01:13.396Z,7.97
2019-04-23T12:03:47.156Z,8.50
2019-04-23T12:09:07.406Z,7.03
2019-04-23T12:14:42.207Z,8.03
2019-04-23T12:17:08.346Z,7.80
2019-04-23T12:22:01.067Z,8.70
2019-04-23T12:24:55.257Z,7.57
2019-04-23T12:29:33.606Z,7.57
2019-04-23T12:32:24.180Z,8.03
2019-04-23T12:34:52.832Z,7.87
2019-04-23T12:37:21.387Z,8.07
2019-04-23T12:39:56.768Z,7.77
2019-04-23T12:42:39.107Z,7.60
2019-04-23T12:44:53.379Z,7.77
2019-04-23T12:47:25.585Z,7.07
2019-04-23T12:50:14.522Z,7.50
2019-04-23T12:52:17.078Z,8.10
2019-04-23T12:55:02.118Z,7.83
2019-04-23T12:57:17.974Z,8.10
2019-04-23T13:02:25.555Z,8.23
2019-04-23T13:04:48.676Z,9.80
2019-04-23T13:07:26.372Z,8.30
2019-04-23T13:09:54.531Z,8.53
2019-04-23T13:12:29.289Z,8.67
2019-04-23T13:14:56.065Z,8.53
2019-04-23T13:17:29.690Z,8.77
2019-04-23T13:19:58.251Z,8.20
2019-04-23T13:22:23.937Z,8.80
2019-04-23T13:24:50.117Z,7.97
2019-04-23T13:27:49.976Z,7.70
2019-04-23T13:30:16.934Z,7.73
2019-04-23T13:32:46.477Z,7.73
2019-04-23T13:35:25.714Z,8.60
2019-04-23T13:37:51.078Z,8.43
2019-04-23T13:40:09.199Z,8.67
2019-04-23T13:45:28.977Z,8.50
2019-04-23T13:48:03.425Z,8.23
2019-04-23T13:50:20.267Z,8.20
2019-04-23T13:55:09.318Z,8.10
2019-04-23T14:00:19.138Z,8.57
2019-04-23T14:02:46.242Z,9.07
2019-04-23T14:05:26.887Z,7.97
2019-04-23T14:08:24.759Z,8.33
2019-04-23T14:13:08.827Z,8.90
2019-04-23T14:18:19.205Z,8.40
2019-04-23T14:20:30.262Z,8.20
2019-04-23T14:23:08.643Z,7.70
2019-04-23T14:25:28.085Z,8.13
2019-04-23T14:28:17.537Z,7.80
2019-04-23T14:32:59.456Z,7.70
2019-04-23T14:38:19.573Z,7.67
2019-04-23T14:40:35.210Z,8.00
2019-04-23T14:53:13.156Z,7.03
2019-04-23T14:58:20.760Z,7.03
2019-04-23T15:00:52.983Z,7.83
2019-04-23T15:06:02.556Z,7.97
2019-04-23T15:08:24.991Z,8.60
2019-04-23T15:10:59.664Z,8.30
2019-04-23T15:13:23.078Z,8.30
2019-04-23T15:15:53.204Z,9.00
2019-04-23T15:18:25.277Z,8.57
2019-04-23T15:21:12.450Z,8.40
2019-04-23T15:23:47.447Z,7.97
2019-04-23T15:26:37.212Z,8.00
2019-04-23T15:28:07.373Z,7.40
2019-04-23T15:30:57.416Z,8.33
2019-04-23T15:33:48.505Z,7.30
2019-04-23T15:41:02.354Z,7.50
2019-04-23T15:43:23.539Z,6.57
2019-04-23T15:46:02.113Z,7.93
2019-04-23T15:48:22.424Z,8.37
2019-04-23T15:51:06.286Z,7.07
2019-04-23T15:53:18.020Z,7.10
2019-04-23T15:56:01.557Z,7.07
2019-04-23T16:01:23.652Z,6.93
2019-04-23T16:03:18.144Z,6.97
2019-04-23T16:05:46.832Z,7.30
2019-04-23T16:08:51.687Z,6.37
2019-04-23T16:11:26.215Z,6.70
2019-04-23T16:14:04.744Z,6.87
2019-04-23T16:16:20.671Z,7.27
2019-04-23T16:18:50.188Z,7.03
2019-04-23T16:21:20.949Z,6.27
2019-04-23T16:23:53.812Z,6.90
2019-04-23T16:26:27.297Z,7.20
2019-04-23T16:29:05.885Z,6.60
2019-04-23T16:31:35.943Z,6.60
2019-04-23T16:33:57.109Z,6.80
2019-04-23T16:36:26.805Z,6.20
2019-04-23T16:38:58.556Z,6.50
2019-04-23T16:41:24.335Z,5.73
2019-04-23T16:44:01.506Z,6.93
2019-04-23T16:46:44.269Z,6.90
2019-04-23T16:53:57.389Z,6.10
2019-04-23T16:56:41.682Z,6.83
2019-04-23T16:59:08.672Z,6.93
2019-04-23T17:01:21.302Z,6.50
2019-04-23T17:03:59.965Z,7.07
2019-04-23T17:06:26.788Z,6.67
2019-04-23T17:08:57.826Z,6.73
2019-04-23T17:11:25.320Z,6.20
2019-04-23T17:14:01.349Z,6.90
2019-04-23T17:16:28.411Z,6.70
2019-04-23T17:21:24.170Z,6.90
2019-04-23T17:26:29.214Z,6.57
2019-04-23T17:29:02.689Z,6.10
2019-04-23T17:33:59.222Z,7.20
2019-04-23T17:39:16.522Z,6.37
2019-04-23T17:41:40.311Z,6.97
2019-04-23T17:44:18.452Z,7.03
2019-04-23T17:46:45.007Z,7.53
2019-04-23T17:49:13.122Z,6.53
2019-04-23T17:51:30.990Z,7.30
2019-04-23T17:54:13.759Z,6.97
2019-04-23T17:56:45.789Z,6.77
2019-04-23T17:59:13.770Z,7.60
2019-04-23T18:01:41.849Z,7.30
2019-04-23T18:04:10.452Z,6.90
2019-04-23T18:09:14.241Z,7.10
2019-04-23T18:11:39.706Z,7.67
2019-04-23T18:14:08.323Z,8.17
2019-04-23T18:22:04.992Z,7.43
2019-04-23T18:24:41.439Z,7.63
2019-04-23T18:27:05.136Z,7.00
2019-04-23T18:29:51.591Z,7.40
2019-04-23T18:32:19.786Z,7.57
2019-04-23T18:35:04.287Z,7.97
2019-04-23T18:37:10.606Z,7.40
2019-04-23T18:39:45.099Z,8.20
2019-04-23T18:42:24.370Z,7.77
2019-04-23T18:44:43.451Z,7.83
2019-04-23T18:47:20.971Z,7.77
2019-04-23T18:52:17.517Z,7.70
2019-04-23T18:54:40.699Z,8.53
2019-04-23T19:02:35.480Z,8.47
2019-04-23T19:07:36.872Z,7.80
2019-04-23T19:13:07.304Z,8.10
2019-04-23T19:17:58.142Z,7.97
2019-04-23T19:22:54.838Z,9.13
2019-04-23T19:25:22.829Z,9.13
2019-04-23T19:30:37.062Z,9.00
2019-04-23T19:32:59.526Z,8.57
2019-04-23T19:35:50.195Z,8.20
2019-04-23T19:38:08.126Z,8.87
2019-04-23T19:40:33.679Z,8.70
2019-04-23T19:42:54.161Z,8.57
2019-04-23T19:45:29.851Z,8.37
2019-04-23T19:47:58.642Z,8.90
2019-04-23T19:50:32.942Z,8.33
2019-04-23T19:53:22.999Z,8.43
2019-04-23T19:55:26.170Z,8.63
2019-04-23T19:58:15.023Z,8.93
2019-04-23T20:00:31.183Z,8.53
2019-04-23T20:03:12.540Z,8.83
2019-04-23T20:05:38.842Z,8.93
2019-04-23T20:08:02.237Z,8.70
2019-04-23T20:10:30.048Z,8.47
2019-04-23T20:12:52.904Z,9.13
2019-04-23T20:15:25.240Z,8.47
2019-04-23T20:17:54.037Z,8.73
2019-04-23T20:23:08.982Z,8.77
2019-04-23T20:25:53.225Z,9.23
2019-04-23T20:28:17.301Z,9.40
2019-04-23T20:30:52.749Z,9.83
2019-04-23T20:35:52.407Z,9.90
2019-04-23T20:40:39.929Z,9.67
2019-04-23T20:43:07.655Z,9.13
2019-04-23T20:45:40.946Z,9.50
2019-04-23T20:48:09.201Z,10.03
2019-04-23T20:50:34.230Z,10.07
2019-04-23T20:52:57.550Z,9.33
2019-04-23T20:55:54.653Z,10.17
2019-04-23T20:58:06.722Z,9.90
2019-04-23T21:03:30.543Z,10.50
2019-04-23T21:05:50.010Z,9.80
2019-04-23T21:08:30.899Z,10.00
2019-04-23T21:10:40.532Z,10.80
2019-04-23T21:13:27.747Z,10.07
2019-04-23T21:15:47.637Z,10.30
2019-04-23T21:20:48.854Z,10.93
2019-04-23T21:28:25.204Z,11.30
2019-04-23T21:33:40.883Z,11.03
2019-04-23T21:39:07.379Z,11.20
2019-04-23T21:41:52.491Z,11.53
2019-04-23T21:44:11.848Z,10.60
2019-04-23T21:46:48.156Z,11.10
2019-04-23T21:54:06.104Z,11.47
2019-04-23T21:56:43.019Z,11.33
2019-04-23T22:01:44.939Z,11.97
2019-04-23T22:04:29.306Z,12.67
2019-04-23T22:06:48.014Z,12.27
2019-04-23T22:09:21.855Z,11.90
2019-04-23T22:11:56.920Z,12.23
2019-04-23T22:16:55.686Z,12.47
2019-04-23T22:19:15.174Z,12.70
2019-04-23T22:29:20.010Z,12.10
2019-04-23T22:31:47.257Z,12.17
2019-04-23T22:34:17.065Z,11.53
2019-04-23T22:36:48.587Z,12.20
2019-04-23T22:39:18.187Z,13.03
2019-04-23T22:41:49.132Z,12.57
2019-04-23T22:46:56.403Z,13.07
2019-04-23T22:49:28.725Z,12.43
2019-04-23T22:52:06.308Z,12.83
2019-04-23T22:54:23.050Z,12.60
2019-04-23T22:57:00.986Z,12.57
2019-04-23T23:04:28.686Z,13.13
2019-04-23T23:07:04.215Z,12.53
2019-04-23T23:09:37.946Z,13.90
2019-04-23T23:14:28.129Z,13.77
2019-04-23T23:16:56.982Z,13.67
2019-04-23T23:22:01.968Z,13.93
2019-04-23T23:24:25.483Z,13.90
2019-04-23T23:26:57.157Z,14.23
2019-04-23T23:29:32.269Z,13.67
2019-04-23T23:32:09.297Z,14.03
2019-04-23T23:34:36.243Z,13.83
2019-04-23T23:37:07.492Z,14.17
2019-04-23T23:39:45.621Z,14.03
2019-04-23T23:42:07.425Z,14.50
2019-04-23T23:44:51.319Z,14.63
2019-04-23T23:47:09.064Z,13.70
2019-04-23T23:49:36.258Z,14.00
2019-04-23T23:52:21.683Z,13.93
2019-04-23T23:54:54.347Z,14.53
2019-04-23T23:57:18.273Z,15.47
